createdAt,value
2023-03-25T00:01:09.272Z,2.10
2023-03-25T00:03:38.288Z,1.60
2023-03-25T00:06:07.554Z,2.00
2023-03-25T00:08:35.409Z,2.37
2023-03-25T00:11:04.558Z,1.70
2023-03-25T00:13:31.984Z,1.87
2023-03-25T00:16:02.161Z,1.97
2023-03-25T00:18:34.835Z,1.90
2023-03-25T00:21:05.120Z,2.10
2023-03-25T00:23:32.767Z,2.30
2023-03-25T00:26:03.329Z,1.83
2023-03-25T00:28:36.205Z,2.30
2023-03-25T00:31:11.960Z,1.90
2023-03-25T00:33:41.676Z,1.80
2023-03-25T00:36:13.812Z,1.70
2023-03-25T00:38:43.177Z,2.60
2023-03-25T00:41:25.853Z,2.00
2023-03-25T00:43:58.680Z,2.10
2023-03-25T00:46:28.718Z,2.27
2023-03-25T00:48:58.310Z,2.20
2023-03-25T00:51:26.848Z,2.00
2023-03-25T00:54:00.295Z,2.00
2023-03-25T00:56:28.777Z,2.30
2023-03-25T00:58:56.585Z,2.47
2023-03-25T01:01:29.860Z,2.27
2023-03-25T01:03:59.495Z,2.50
2023-03-25T01:06:32.500Z,2.20
2023-03-25T01:09:01.600Z,2.07
2023-03-25T01:11:34.667Z,2.87
2023-03-25T01:14:04.336Z,2.30
2023-03-25T01:16:32.263Z,2.40
2023-03-25T01:18:59.322Z,2.10
2023-03-25T01:21:26.561Z,2.60
2023-03-25T01:23:53.543Z,2.10
2023-03-25T01:26:20.689Z,2.37
2023-03-25T01:28:47.842Z,2.67
2023-03-25T01:31:16.077Z,2.37
2023-03-25T01:33:43.268Z,2.63
2023-03-25T01:36:13.119Z,2.33
2023-03-25T01:38:42.011Z,2.10
2023-03-25T01:41:11.046Z,2.40
2023-03-25T01:43:38.145Z,2.00
2023-03-25T01:46:05.407Z,2.10
2023-03-25T01:48:37.382Z,2.40
2023-03-25T01:51:20.792Z,2.00
2023-03-25T01:53:48.984Z,2.33
2023-03-25T01:56:23.100Z,2.30
2023-03-25T01:58:53.090Z,2.53
2023-03-25T02:01:26.712Z,2.43
2023-03-25T02:04:02.969Z,2.97
2023-03-25T02:06:41.756Z,1.63
2023-03-25T02:09:12.126Z,1.93
2023-03-25T02:11:40.550Z,2.43
2023-03-25T02:14:12.661Z,2.20
2023-03-25T02:17:25.098Z,2.60
2023-03-25T02:19:54.726Z,1.97
2023-03-25T02:23:01.913Z,1.93
2023-03-25T02:26:14.881Z,2.17
2023-03-25T02:29:07.972Z,2.17
2023-03-25T02:32:15.473Z,2.53
2023-03-25T02:35:01.158Z,2.67
2023-03-25T02:38:01.331Z,2.20
2023-03-25T02:40:40.696Z,2.57
2023-03-25T02:43:33.297Z,2.13
2023-03-25T02:46:08.205Z,2.00
2023-03-25T02:48:57.912Z,2.07
2023-03-25T02:51:33.723Z,2.20
2023-03-25T02:54:07.844Z,1.87
2023-03-25T02:56:37.341Z,1.77
2023-03-25T02:59:06.409Z,2.03
2023-03-25T03:01:34.973Z,2.30
2023-03-25T03:04:02.770Z,2.20
2023-03-25T03:06:29.981Z,2.50
2023-03-25T03:09:27.243Z,2.80
2023-03-25T03:12:26.514Z,2.60
2023-03-25T03:15:10.995Z,2.57
2023-03-25T03:18:16.762Z,2.30
2023-03-25T03:21:07.559Z,2.17
2023-03-25T03:24:01.044Z,2.37
2023-03-25T03:26:55.325Z,3.00
2023-03-25T03:29:34.317Z,2.20
2023-03-25T03:32:43.524Z,2.60
2023-03-25T03:35:19.258Z,2.53
2023-03-25T03:37:58.360Z,2.57
2023-03-25T03:40:28.911Z,2.30
2023-03-25T03:43:00.542Z,2.40
2023-03-25T03:45:46.893Z,2.10
2023-03-25T03:48:26.982Z,1.60
2023-03-25T03:51:21.459Z,1.50
2023-03-25T03:54:19.169Z,1.60
2023-03-25T03:57:31.905Z,2.17
2023-03-25T04:00:42.325Z,1.80
2023-03-25T04:03:26.319Z,1.70
2023-03-25T04:06:02.059Z,1.40
2023-03-25T04:08:35.761Z,1.63
2023-03-25T04:11:09.733Z,1.50
2023-03-25T04:13:41.472Z,1.97
2023-03-25T04:16:09.197Z,1.53
2023-03-25T04:18:36.403Z,1.67
2023-03-25T04:21:03.811Z,1.67
2023-03-25T04:23:31.418Z,1.80
2023-03-25T04:26:02.748Z,1.93
2023-03-25T04:28:31.818Z,2.07
2023-03-25T04:31:00.801Z,2.30
2023-03-25T04:33:32.203Z,2.50
2023-03-25T04:36:02.183Z,2.20
2023-03-25T04:38:29.553Z,2.30
2023-03-25T04:40:56.725Z,1.90
2023-03-25T04:43:24.100Z,2.07
2023-03-25T04:45:54.979Z,2.50
2023-03-25T04:48:30.561Z,2.07
2023-03-25T04:50:59.161Z,1.73
2023-03-25T04:53:30.183Z,1.70
2023-03-25T04:55:57.249Z,2.20
2023-03-25T04:58:24.250Z,1.93
2023-03-25T05:00:52.898Z,1.90
2023-03-25T05:03:24.516Z,2.10
2023-03-25T05:05:55.555Z,1.83
2023-03-25T05:08:22.585Z,2.13
2023-03-25T05:10:50.305Z,2.20
2023-03-25T05:13:17.510Z,1.80
2023-03-25T05:15:44.482Z,2.03
2023-03-25T05:18:15.045Z,2.20
2023-03-25T05:20:45.306Z,2.17
2023-03-25T05:23:17.854Z,2.60
2023-03-25T05:25:47.537Z,2.97
2023-03-25T05:28:15.041Z,2.00
2023-03-25T05:30:46.169Z,2.67
2023-03-25T05:33:16.999Z,2.27
2023-03-25T05:35:45.110Z,2.90
2023-03-25T05:38:13.696Z,2.97
2023-03-25T05:40:40.723Z,2.80
2023-03-25T05:43:08.047Z,2.70
2023-03-25T05:45:37.887Z,2.53
2023-03-25T05:48:05.753Z,2.33
2023-03-25T05:50:32.812Z,3.03
2023-03-25T05:53:00.163Z,3.07
2023-03-25T05:55:28.235Z,3.33
2023-03-25T05:57:56.991Z,2.30
2023-03-25T06:00:24.636Z,2.50
2023-03-25T06:02:52.422Z,2.50
2023-03-25T06:05:23.851Z,2.53
2023-03-25T06:07:51.613Z,3.03
2023-03-25T06:10:19.333Z,2.50
2023-03-25T06:12:47.872Z,2.40
2023-03-25T06:15:29.204Z,2.93
2023-03-25T06:17:57.782Z,2.70
2023-03-25T06:20:25.290Z,2.97
2023-03-25T06:22:52.641Z,3.67
2023-03-25T06:25:21.045Z,3.10
2023-03-25T06:27:50.452Z,2.60
2023-03-25T06:30:21.284Z,3.27
2023-03-25T06:32:52.630Z,3.50
2023-03-25T06:35:20.759Z,3.20
2023-03-25T06:37:49.437Z,3.57
2023-03-25T06:40:17.286Z,3.63
2023-03-25T06:42:44.466Z,3.30
2023-03-25T06:45:12.862Z,3.80
2023-03-25T06:47:40.767Z,3.87
2023-03-25T06:50:08.578Z,3.30
2023-03-25T06:52:36.010Z,3.47
2023-03-25T06:55:03.719Z,3.83
2023-03-25T06:57:30.745Z,4.53
2023-03-25T06:59:57.780Z,3.57
2023-03-25T07:02:24.810Z,3.90
2023-03-25T07:04:51.931Z,3.80
2023-03-25T07:07:19.195Z,4.37
2023-03-25T07:09:51.058Z,3.87
2023-03-25T07:12:18.155Z,3.37
2023-03-25T07:14:53.837Z,3.70
2023-03-25T07:17:21.832Z,4.20
2023-03-25T07:19:49.210Z,3.50
2023-03-25T07:22:16.576Z,3.97
2023-03-25T07:24:44.152Z,4.10
2023-03-25T07:27:12.996Z,4.07
2023-03-25T07:29:40.988Z,4.67
2023-03-25T07:32:08.011Z,4.73
2023-03-25T07:34:35.558Z,3.70
2023-03-25T07:37:04.086Z,4.10
2023-03-25T07:39:31.143Z,4.27
2023-03-25T07:42:00.540Z,3.80
2023-03-25T07:44:27.484Z,4.07
2023-03-25T07:46:54.483Z,4.20
2023-03-25T07:49:21.533Z,3.60
2023-03-25T07:51:48.481Z,4.00
2023-03-25T07:54:15.484Z,3.80
2023-03-25T07:56:42.491Z,3.47
2023-03-25T07:59:09.758Z,3.90
2023-03-25T08:01:36.998Z,4.80
2023-03-25T08:04:04.312Z,4.27
2023-03-25T08:06:32.079Z,4.00
2023-03-25T08:08:59.155Z,3.70
2023-03-25T08:11:26.119Z,3.83
2023-03-25T08:13:53.170Z,3.70
2023-03-25T08:16:20.323Z,3.30
2023-03-25T08:18:47.319Z,3.47
2023-03-25T08:21:14.622Z,3.87
2023-03-25T08:23:42.022Z,4.23
2023-03-25T08:26:10.360Z,3.90
2023-03-25T08:28:37.330Z,3.67
2023-03-25T08:31:08.649Z,3.60
2023-03-25T08:33:41.059Z,4.07
2023-03-25T08:36:13.897Z,4.17
2023-03-25T08:38:42.179Z,3.83
2023-03-25T08:41:09.161Z,4.43
2023-03-25T08:43:36.187Z,4.17
2023-03-25T08:46:03.657Z,3.60
2023-03-25T08:48:31.066Z,4.33
2023-03-25T08:50:58.610Z,4.57
2023-03-25T08:53:26.076Z,4.10
2023-03-25T08:55:58.784Z,3.70
2023-03-25T08:58:26.988Z,3.90
2023-03-25T09:00:56.371Z,4.33
2023-03-25T09:03:24.536Z,4.57
2023-03-25T09:05:51.852Z,5.10
2023-03-25T09:08:19.138Z,4.80
2023-03-25T09:10:46.100Z,4.47
2023-03-25T09:13:13.118Z,4.63
2023-03-25T09:15:40.358Z,4.97
2023-03-25T09:18:07.532Z,4.07
2023-03-25T09:20:34.621Z,5.10
2023-03-25T09:23:01.756Z,4.17
2023-03-25T09:25:28.744Z,5.40
2023-03-25T09:27:55.772Z,3.70
2023-03-25T09:30:22.754Z,4.80
2023-03-25T09:32:49.766Z,4.47
2023-03-25T09:35:17.059Z,4.10
2023-03-25T09:37:44.629Z,4.57
2023-03-25T09:40:18.075Z,4.77
2023-03-25T09:43:40.991Z,4.27
2023-03-25T09:46:09.342Z,3.73
2023-03-25T09:48:43.229Z,3.93
2023-03-25T09:51:33.921Z,3.70
2023-03-25T09:54:24.053Z,4.13
2023-03-25T09:56:53.529Z,3.73
2023-03-25T09:59:24.046Z,3.23
2023-03-25T10:02:29.435Z,3.70
2023-03-25T10:05:56.790Z,3.30
2023-03-25T10:08:49.886Z,3.27
2023-03-25T10:11:40.441Z,3.43
2023-03-25T10:14:14.972Z,3.37
2023-03-25T10:17:27.410Z,3.37
2023-03-25T10:20:13.019Z,3.13
2023-03-25T10:23:14.405Z,3.20
2023-03-25T10:25:45.973Z,2.80
2023-03-25T10:28:27.773Z,3.50
2023-03-25T10:30:55.584Z,3.03
2023-03-25T10:33:39.868Z,3.43
2023-03-25T10:36:13.936Z,3.80
2023-03-25T10:38:42.072Z,3.47
2023-03-25T10:41:31.728Z,3.40
2023-03-25T10:43:58.688Z,2.50
2023-03-25T10:46:47.671Z,2.90
2023-03-25T10:49:22.887Z,3.17
2023-03-25T10:51:57.478Z,3.47
2023-03-25T10:54:31.818Z,2.70
2023-03-25T10:57:03.818Z,3.23
2023-03-25T10:59:55.713Z,3.53
2023-03-25T11:02:26.110Z,5.63
2023-03-25T11:05:19.219Z,3.47
2023-03-25T11:07:58.676Z,3.03
2023-03-25T11:10:34.329Z,2.30
2023-03-25T11:13:06.912Z,2.33
2023-03-25T11:15:40.298Z,2.20
2023-03-25T11:18:22.658Z,3.07
2023-03-25T11:20:54.494Z,3.07
2023-03-25T11:23:33.269Z,3.47
2023-03-25T11:26:28.175Z,2.87
2023-03-25T11:29:28.628Z,2.60
2023-03-25T11:32:19.005Z,3.53
2023-03-25T11:34:53.031Z,3.30
2023-03-25T11:37:25.214Z,3.40
2023-03-25T11:39:55.840Z,3.43
2023-03-25T11:42:33.051Z,3.10
2023-03-25T11:45:02.390Z,3.50
2023-03-25T11:47:41.301Z,3.00
2023-03-25T11:50:23.024Z,2.93
2023-03-25T11:52:54.992Z,2.27
2023-03-25T11:55:31.010Z,2.70
2023-03-25T11:58:00.562Z,3.50
2023-03-25T12:00:36.771Z,2.90
2023-03-25T12:03:20.521Z,2.90
2023-03-25T12:06:20.605Z,3.20
2023-03-25T12:08:59.500Z,3.10
2023-03-25T12:11:32.830Z,2.90
2023-03-25T12:14:17.613Z,2.97
2023-03-25T12:17:15.705Z,2.77
2023-03-25T12:20:13.347Z,2.90
2023-03-25T12:23:36.942Z,2.93
2023-03-25T12:26:27.713Z,3.80
2023-03-25T12:29:41.149Z,3.30
2023-03-25T12:32:24.159Z,3.10
2023-03-25T12:35:24.458Z,3.03
2023-03-25T12:38:33.008Z,3.50
2023-03-25T12:41:31.620Z,3.27
2023-03-25T12:44:38.420Z,4.90
2023-03-25T12:47:08.356Z,3.50
2023-03-25T12:50:05.423Z,4.07
2023-03-25T12:53:00.213Z,3.40
2023-03-25T12:55:29.929Z,4.33
2023-03-25T12:58:28.078Z,2.70
2023-03-25T13:01:22.835Z,2.80
2023-03-25T13:04:06.273Z,2.90
2023-03-25T13:07:04.350Z,3.43
2023-03-25T13:09:53.992Z,2.87
2023-03-25T13:12:54.323Z,2.20
2023-03-25T13:15:27.247Z,3.27
2023-03-25T13:18:17.284Z,3.20
2023-03-25T13:21:14.167Z,2.87
2023-03-25T13:23:44.642Z,3.57
2023-03-25T13:26:18.315Z,2.73
2023-03-25T13:28:51.828Z,3.20
2023-03-25T13:31:28.961Z,3.20
2023-03-25T13:34:36.263Z,2.70
2023-03-25T13:37:26.848Z,3.23
2023-03-25T13:40:24.391Z,2.73
2023-03-25T13:43:06.630Z,3.23
2023-03-25T13:45:52.068Z,2.47
2023-03-25T13:48:25.240Z,3.40
2023-03-25T13:50:52.769Z,3.23
2023-03-25T13:53:51.602Z,2.70
2023-03-25T13:57:09.939Z,2.57
2023-03-25T14:00:24.969Z,2.63
2023-03-25T14:03:46.654Z,2.27
2023-03-25T14:06:44.239Z,2.37
2023-03-25T14:10:11.639Z,2.50
2023-03-25T14:12:49.199Z,2.90
2023-03-25T14:15:24.065Z,2.90
2023-03-25T14:17:52.944Z,2.80
2023-03-25T14:20:29.821Z,2.57
2023-03-25T14:23:00.095Z,2.60
2023-03-25T14:25:50.236Z,1.63
2023-03-25T14:28:41.408Z,2.50
2023-03-25T14:31:16.936Z,3.10
2023-03-25T14:34:02.250Z,2.60
2023-03-25T14:36:31.514Z,2.60
2023-03-25T14:38:59.590Z,3.40
2023-03-25T14:41:58.589Z,3.60
2023-03-25T14:44:32.950Z,3.50
2023-03-25T14:47:24.877Z,3.03
2023-03-25T14:50:30.328Z,3.20
2023-03-25T14:53:10.990Z,3.03
2023-03-25T14:55:48.182Z,2.90
2023-03-25T14:58:22.235Z,2.70
2023-03-25T15:01:12.415Z,3.30
2023-03-25T15:03:45.746Z,3.10
2023-03-25T15:06:22.486Z,2.50
2023-03-25T15:08:56.791Z,3.33
2023-03-25T15:11:36.438Z,3.13
2023-03-25T15:14:22.400Z,2.70
2023-03-25T15:16:49.869Z,3.17
2023-03-25T15:19:19.239Z,2.93
2023-03-25T15:21:58.456Z,2.70
2023-03-25T15:24:40.437Z,2.67
2023-03-25T15:27:52.288Z,3.03
2023-03-25T15:30:55.983Z,3.27
2023-03-25T15:34:06.732Z,3.80
2023-03-25T15:36:53.724Z,3.17
2023-03-25T15:39:45.644Z,3.83
2023-03-25T15:43:03.545Z,2.93
2023-03-25T15:46:07.160Z,3.63
2023-03-25T15:48:48.572Z,3.73
2023-03-25T15:51:37.444Z,3.53
2023-03-25T15:54:43.895Z,2.97
2023-03-25T15:57:33.723Z,3.30
2023-03-25T16:00:16.736Z,3.80
2023-03-25T16:03:04.073Z,3.47
2023-03-25T16:05:35.066Z,3.73
2023-03-25T16:08:32.066Z,3.50
2023-03-25T16:11:33.960Z,3.50
2023-03-25T16:14:08.193Z,4.90
2023-03-25T16:16:40.954Z,4.27
2023-03-25T16:19:16.745Z,4.03
2023-03-25T16:21:44.426Z,3.90
2023-03-25T16:24:13.846Z,3.90
2023-03-25T16:26:46.033Z,4.17
2023-03-25T16:29:22.504Z,4.87
2023-03-25T16:32:02.482Z,5.33
2023-03-25T16:34:41.329Z,3.80
2023-03-25T16:37:10.668Z,4.37
2023-03-25T16:39:38.465Z,4.20
2023-03-25T16:42:26.837Z,4.93
2023-03-25T16:44:55.205Z,5.23
2023-03-25T16:47:23.437Z,5.50
2023-03-25T16:49:54.658Z,3.90
2023-03-25T16:52:32.278Z,3.53
2023-03-25T16:54:59.214Z,3.60
2023-03-25T16:57:29.595Z,4.33
2023-03-25T17:00:19.917Z,4.00
2023-03-25T17:02:50.208Z,4.10
2023-03-25T17:05:27.378Z,3.70
2023-03-25T17:08:04.160Z,3.63
2023-03-25T17:10:54.939Z,4.47
2023-03-25T17:13:34.909Z,4.80
2023-03-25T17:16:02.166Z,3.63
2023-03-25T17:18:32.532Z,4.87
2023-03-25T17:21:01.562Z,4.10
2023-03-25T17:23:45.925Z,3.87
2023-03-25T17:26:20.090Z,3.80
2023-03-25T17:28:53.284Z,3.97
2023-03-25T17:31:21.656Z,3.90
2023-03-25T17:33:52.500Z,4.27
2023-03-25T17:36:21.402Z,3.70
2023-03-25T17:38:53.564Z,4.67
2023-03-25T17:41:21.595Z,3.83
2023-03-25T17:43:53.182Z,4.50
2023-03-25T17:46:29.507Z,4.20
2023-03-25T17:48:58.168Z,5.07
2023-03-25T17:51:28.898Z,4.30
2023-03-25T17:53:56.556Z,4.40
2023-03-25T17:56:28.467Z,4.63
2023-03-25T17:59:02.345Z,4.93
2023-03-25T18:01:31.291Z,5.37
2023-03-25T18:03:58.398Z,4.87
2023-03-25T18:06:26.047Z,5.60
2023-03-25T18:08:53.317Z,4.40
2023-03-25T18:11:20.847Z,5.53
2023-03-25T18:13:48.152Z,5.10
2023-03-25T18:16:21.733Z,4.60
2023-03-25T18:18:49.192Z,4.77
2023-03-25T18:21:17.850Z,5.07
2023-03-25T18:23:47.795Z,4.30
2023-03-25T18:26:18.776Z,5.03
2023-03-25T18:28:47.257Z,5.37
2023-03-25T18:31:17.622Z,5.53
2023-03-25T18:33:53.399Z,5.70
2023-03-25T18:36:20.541Z,4.93
2023-03-25T18:38:47.863Z,5.03
2023-03-25T18:41:15.557Z,5.60
2023-03-25T18:43:43.047Z,6.83
2023-03-25T18:46:14.760Z,6.10
2023-03-25T18:48:42.969Z,4.90
2023-03-25T18:51:12.436Z,5.57
2023-03-25T18:53:40.657Z,4.97
2023-03-25T18:56:08.963Z,5.20
2023-03-25T18:58:36.936Z,5.43
2023-03-25T19:01:07.580Z,6.53
2023-03-25T19:03:40.934Z,5.43
2023-03-25T19:06:12.577Z,5.70
2023-03-25T19:08:41.168Z,4.93
2023-03-25T19:11:19.949Z,5.47
2023-03-25T19:13:50.725Z,5.90
2023-03-25T19:16:18.999Z,5.27
2023-03-25T19:18:47.471Z,5.70
2023-03-25T19:21:19.276Z,4.60
2023-03-25T19:23:47.456Z,5.13
2023-03-25T19:26:15.421Z,4.47
2023-03-25T19:28:42.889Z,5.13
2023-03-25T19:31:15.747Z,9.20
2023-03-25T19:33:43.513Z,5.63
2023-03-25T19:36:16.303Z,5.73
2023-03-25T19:38:43.479Z,4.73
2023-03-25T19:41:13.792Z,5.17
2023-03-25T19:43:41.152Z,5.20
2023-03-25T19:46:08.322Z,5.20
2023-03-25T19:48:36.247Z,5.33
2023-03-25T19:51:04.141Z,6.07
2023-03-25T19:53:31.616Z,5.83
2023-03-25T19:56:03.891Z,5.07
2023-03-25T19:58:31.318Z,5.80
2023-03-25T20:00:58.367Z,6.53
2023-03-25T20:03:26.720Z,5.63
2023-03-25T20:05:58.088Z,4.40
2023-03-25T20:08:26.065Z,5.30
2023-03-25T20:10:54.001Z,4.83
2023-03-25T20:13:21.447Z,4.63
2023-03-25T20:15:52.815Z,5.03
2023-03-25T20:18:20.085Z,5.20
2023-03-25T20:20:47.116Z,5.87
2023-03-25T20:23:14.220Z,6.20
2023-03-25T20:25:41.396Z,5.77
2023-03-25T20:28:08.500Z,5.17
2023-03-25T20:30:36.075Z,5.97
2023-03-25T20:33:03.973Z,6.10
2023-03-25T20:35:31.901Z,5.43
2023-03-25T20:37:59.122Z,5.07
2023-03-25T20:40:37.450Z,5.03
2023-03-25T20:43:13.859Z,5.53
2023-03-25T20:45:41.849Z,5.40
2023-03-25T20:48:09.051Z,6.03
2023-03-25T20:50:36.688Z,5.07
2023-03-25T20:53:04.463Z,5.67
2023-03-25T20:55:31.703Z,5.07
2023-03-25T20:57:58.685Z,5.23
2023-03-25T21:00:25.760Z,6.47
2023-03-25T21:02:54.297Z,5.33
2023-03-25T21:05:21.454Z,5.63
2023-03-25T21:07:48.698Z,5.30
2023-03-25T21:10:16.394Z,5.50
2023-03-25T21:12:44.923Z,5.90
2023-03-25T21:15:14.986Z,5.20
2023-03-25T21:17:43.170Z,5.20
2023-03-25T21:20:11.886Z,5.10
2023-03-25T21:22:43.908Z,5.17
2023-03-25T21:25:14.596Z,4.97
2023-03-25T21:27:44.970Z,4.97
2023-03-25T21:30:13.045Z,5.30
2023-03-25T21:32:40.438Z,5.07
2023-03-25T21:35:09.147Z,5.80
2023-03-25T21:37:40.613Z,5.57
2023-03-25T21:40:11.245Z,5.43
2023-03-25T21:42:42.475Z,5.03
2023-03-25T21:45:16.760Z,5.27
2023-03-25T21:47:47.511Z,6.50
2023-03-25T21:50:16.567Z,5.87
2023-03-25T21:52:46.312Z,4.50
2023-03-25T21:55:16.161Z,5.60
2023-03-25T21:57:45.113Z,4.90
2023-03-25T22:00:17.023Z,4.97
2023-03-25T22:02:46.383Z,4.53
2023-03-25T22:05:16.345Z,4.97
2023-03-25T22:07:43.614Z,5.40
2023-03-25T22:10:11.652Z,5.23
2023-03-25T22:12:38.800Z,5.27
2023-03-25T22:15:06.868Z,5.90
2023-03-25T22:17:33.885Z,5.17
2023-03-25T22:20:01.190Z,5.37
2023-03-25T22:22:30.000Z,4.90
2023-03-25T22:24:57.216Z,6.03
2023-03-25T22:27:24.302Z,5.00
2023-03-25T22:29:51.521Z,5.30
2023-03-25T22:32:18.653Z,5.10
2023-03-25T22:34:45.745Z,4.87
2023-03-25T22:37:12.743Z,5.90
2023-03-25T22:39:39.707Z,4.40
2023-03-25T22:42:07.436Z,5.00
2023-03-25T22:44:34.434Z,4.87
2023-03-25T22:47:01.720Z,4.93
2023-03-25T22:49:29.229Z,4.20
2023-03-25T22:51:56.289Z,4.63
2023-03-25T22:54:24.545Z,4.20
2023-03-25T22:56:51.584Z,4.60
2023-03-25T22:59:19.860Z,4.50
2023-03-25T23:01:46.896Z,3.67
2023-03-25T23:04:14.117Z,4.33
2023-03-25T23:06:41.972Z,4.90
2023-03-25T23:09:10.468Z,3.97
2023-03-25T23:11:38.249Z,4.43
2023-03-25T23:14:13.163Z,4.80
2023-03-25T23:16:41.950Z,4.03
2023-03-25T23:19:10.018Z,4.40
2023-03-25T23:21:38.254Z,4.30
2023-03-25T23:24:05.789Z,4.47
2023-03-25T23:26:39.470Z,4.13
2023-03-25T23:29:11.025Z,3.80
2023-03-25T23:31:42.143Z,4.20
2023-03-25T23:34:16.141Z,4.00
2023-03-25T23:36:45.344Z,4.17
2023-03-25T23:39:17.172Z,4.17
2023-03-25T23:41:44.431Z,3.90
2023-03-25T23:44:11.615Z,4.10
2023-03-25T23:46:38.767Z,3.90
2023-03-25T23:49:05.953Z,4.63
2023-03-25T23:51:38.374Z,4.10
2023-03-25T23:54:08.540Z,4.17
2023-03-25T23:56:36.750Z,3.60
2023-03-25T23:59:04.481Z,5.00
